Time;durP1;ratioP1;P1;durP2;ratioP2;P2;SDS_P1;SDS_P2;PMS_P1;PMS_P2;Temp;Humidity;BMP_temperature;BMP_pressure;BME280_temperature;BME280_humidity;BME280_pressure;Samples;Min_cycle;Max_cycle;Signal;HPM_P1;HPM_P2
2022/08/21 00:04:30;;;;;;;58.45;34.65;;;;;;;16.03;100.00;96657.41;10534981;28;20198;-75
2022/08/21 00:09:31;;;;;;;63.42;35.25;;;;;;;15.92;100.00;96654.47;10515922;28;20662;-75
2022/08/21 00:14:31;;;;;;;61.35;35.05;;;;;;;15.83;100.00;96649.31;10533878;28;20194;-76
2022/08/21 00:19:32;;;;;;;61.58;36.30;;;;;;;15.95;100.00;96654.88;10547459;28;20225;-75
2022/08/21 00:24:32;;;;;;;69.68;40.03;;;;;;;15.92;100.00;96646.53;10542393;28;20190;-76
2022/08/21 00:29:33;;;;;;;70.88;40.78;;;;;;;15.91;100.00;96658.09;10542237;28;20256;-76
2022/08/21 00:34:33;;;;;;;75.78;41.38;;;;;;;15.87;100.00;96650.56;10545144;28;20238;-75
2022/08/21 00:39:33;;;;;;;87.60;46.15;;;;;;;15.79;100.00;96656.00;10547931;28;20604;-76
2022/08/21 00:44:34;;;;;;;81.07;44.83;;;;;;;15.82;100.00;96657.44;10547562;28;20309;-76
2022/08/21 00:49:34;;;;;;;100.45;49.35;;;;;;;15.83;100.00;96659.06;10547705;28;20182;-76
2022/08/21 00:54:36;;;;;;;112.45;51.28;;;;;;;15.82;100.00;96666.16;10547709;28;20325;-76
2022/08/21 00:59:37;;;;;;;88.43;46.72;;;;;;;15.87;100.00;96674.34;10528384;28;20244;-76
2022/08/21 01:04:37;;;;;;;97.75;51.00;;;;;;;15.80;100.00;96670.84;10529351;28;20222;-75
2022/08/21 01:09:38;;;;;;;96.40;47.78;;;;;;;15.86;100.00;96677.16;10528962;28;20182;-76
2022/08/21 01:14:41;;;;;;;91.65;47.67;;;;;;;15.81;100.00;96676.94;10529914;28;20190;-76
2022/08/21 01:19:43;;;;;;;106.20;52.13;;;;;;;15.79;100.00;96678.91;10512435;28;20210;-75
2022/08/21 01:24:43;;;;;;;115.60;53.97;;;;;;;15.79;100.00;96674.47;10546960;28;20194;-75
2022/08/21 01:30:11;;;;;;;135.70;56.88;;;;;;;15.78;100.00;96680.75;10540845;28;20198;-76
2022/08/21 01:35:13;;;;;;;128.65;52.88;;;;;;;15.78;100.00;96678.13;10529334;28;20318;-75
2022/08/21 01:40:15;;;;;;;111.50;49.65;;;;;;;15.77;100.00;96688.84;10539993;28;20225;-75
2022/08/21 01:45:16;;;;;;;130.25;55.38;;;;;;;15.80;100.00;96691.13;10538319;28;20198;-76
2022/08/21 01:50:18;;;;;;;102.18;49.25;;;;;;;15.87;100.00;96694.66;10517004;28;20214;-75
2022/08/21 01:55:19;;;;;;;121.25;53.83;;;;;;;15.85;100.00;96712.53;10539050;28;20233;-75
2022/08/21 02:00:25;;;;;;;109.72;49.58;;;;;;;15.77;100.00;96717.91;10538849;28;20650;-76
2022/08/21 02:05:25;;;;;;;32.03;19.52;;;;;;;15.55;100.00;96728.47;10538735;28;20205;-75
2022/08/21 02:10:29;;;;;;;24.40;16.67;;;;;;;15.28;100.00;96724.72;10520244;28;20686;-75
2022/08/21 02:15:31;;;;;;;28.33;15.82;;;;;;;15.22;100.00;96721.00;10520797;28;20367;-75
2022/08/21 02:20:35;;;;;;;23.83;15.80;;;;;;;15.19;100.00;96716.09;10538121;28;20186;-75
2022/08/21 02:25:36;;;;;;;25.75;16.52;;;;;;;15.13;100.00;96719.44;10538244;28;20182;-75
2022/08/21 02:30:42;;;;;;;28.55;16.60;;;;;;;15.11;100.00;96714.34;10538131;28;20211;-75
2022/08/21 02:35:44;;;;;;;21.38;14.63;;;;;;;15.10;100.00;96719.81;10519401;28;20242;-75
2022/08/21 02:40:47;;;;;;;18.50;13.07;;;;;;;15.06;100.00;96718.56;10537405;28;20533;-75
2022/08/21 02:45:48;;;;;;;19.30;12.35;;;;;;;15.04;100.00;96724.03;10537462;28;20273;-76
2022/08/21 02:50:53;;;;;;;21.08;13.30;;;;;;;14.97;100.00;96720.50;10536699;28;20658;-76
2022/08/21 02:55:54;;;;;;;16.73;11.32;;;;;;;14.94;100.00;96719.03;10518040;28;20317;-76
2022/08/21 03:00:54;;;;;;;16.17;11.45;;;;;;;14.87;100.00;96718.16;10535924;28;20186;-76
2022/08/21 03:05:55;;;;;;;18.95;11.07;;;;;;;14.77;100.00;96714.97;10498394;28;20568;-75
2022/08/21 03:10:55;;;;;;;16.42;10.32;;;;;;;14.80;100.00;96714.59;10490550;28;20222;-76
2022/08/21 03:15:56;;;;;;;14.98;9.82;;;;;;;14.73;100.00;96716.31;10473693;28;20180;-76
2022/08/21 03:20:56;;;;;;;18.45;10.77;;;;;;;14.73;100.00;96716.31;10490235;28;20194;-76
2022/08/21 03:25:57;;;;;;;21.13;11.98;;;;;;;14.74;100.00;96708.22;10490809;28;20206;-76
2022/08/21 03:30:58;;;;;;;17.25;11.25;;;;;;;14.78;100.00;96716.63;10472233;28;20245;-75
2022/08/21 03:36:04;;;;;;;21.70;13.30;;;;;;;14.65;100.00;96717.22;10471629;28;20206;-76
2022/08/21 03:41:05;;;;;;;16.67;10.82;;;;;;;14.71;100.00;96716.50;10489993;28;20266;-76
2022/08/21 03:46:06;;;;;;;21.00;11.38;;;;;;;14.89;100.00;96729.31;10489571;28;20273;-76
2022/08/21 03:51:06;;;;;;;15.75;10.40;;;;;;;14.90;100.00;96715.16;10488779;28;20218;-76
2022/08/21 03:56:07;;;;;;;16.13;9.25;;;;;;;15.01;100.00;96705.09;10489452;28;20581;-75
2022/08/21 04:01:07;;;;;;;20.63;10.52;;;;;;;14.88;100.00;96711.03;10489310;28;20187;-76
2022/08/21 04:06:08;;;;;;;17.10;10.35;;;;;;;14.84;100.00;96709.75;10475003;28;20655;-76
2022/08/21 04:11:10;;;;;;;12.63;9.40;;;;;;;14.91;100.00;96708.03;10492725;28;20215;-76
2022/08/21 04:16:10;;;;;;;15.85;10.15;;;;;;;14.86;100.00;96723.59;10492698;28;20248;-76
2022/08/21 04:21:11;;;;;;;18.92;11.05;;;;;;;14.76;100.00;96721.22;10474554;28;20902;-76
2022/08/21 04:26:11;;;;;;;15.45;9.43;;;;;;;14.95;100.00;96717.22;10474515;28;20187;-75
2022/08/21 04:31:12;;;;;;;12.70;9.75;;;;;;;14.94;100.00;96718.22;10491851;28;20352;-75
2022/08/21 04:36:12;;;;;;;15.15;9.23;;;;;;;15.01;100.00;96716.50;10491991;28;20571;-76
2022/08/21 04:41:13;;;;;;;13.10;8.70;;;;;;;15.01;100.00;96710.38;10491770;28;20187;-75
2022/08/21 04:46:13;;;;;;;13.82;8.95;;;;;;;14.97;100.00;96709.94;10492117;28;20553;-75
2022/08/21 04:51:24;;;;;;;11.18;8.32;;;;;;;15.01;100.00;96716.50;10491556;28;20234;-75
2022/08/21 04:56:28;;;;;;;13.65;9.18;;;;;;;15.06;100.00;96729.13;10473914;28;20231;-75
2022/08/21 05:01:30;;;;;;;12.70;10.30;;;;;;;14.77;100.00;96720.25;10475132;28;20317;-75
2022/08/21 05:06:34;;;;;;;14.85;10.60;;;;;;;14.76;100.00;96734.41;10482408;28;20183;-76
2022/08/21 05:11:35;;;;;;;14.02;10.43;;;;;;;15.03;100.00;96737.41;10481762;28;20801;-75
2022/08/21 05:16:35;;;;;;;14.23;10.43;;;;;;;15.14;100.00;96736.94;10500495;28;20237;-75
2022/08/21 05:21:40;;;;;;;12.95;9.88;;;;;;;15.19;100.00;96733.75;10499438;28;20544;-75
2022/08/21 05:26:40;;;;;;;14.02;10.32;;;;;;;15.24;100.00;96732.19;10499418;28;20184;-76
2022/08/21 05:31:41;;;;;;;12.25;9.48;;;;;;;15.22;100.00;96730.72;10497323;28;20215;-76
2022/08/21 05:36:41;;;;;;;11.98;9.80;;;;;;;15.22;100.00;96731.56;10495962;28;20214;-76
2022/08/21 05:41:41;;;;;;;12.95;9.32;;;;;;;15.38;100.00;96725.22;10496360;28;20192;-76
2022/08/21 05:46:42;;;;;;;11.20;8.90;;;;;;;15.45;100.00;96709.47;10495437;28;20202;-75
2022/08/21 05:51:42;;;;;;;12.35;8.90;;;;;;;15.66;100.00;96706.00;10496068;28;20215;-76
2022/08/21 05:56:44;;;;;;;13.35;9.15;;;;;;;15.76;100.00;96697.75;10477543;28;20381;-76
2022/08/21 06:01:45;;;;;;;13.38;10.60;;;;;;;15.90;100.00;96702.19;10477356;28;20352;-76
2022/08/21 06:06:47;;;;;;;13.40;10.75;;;;;;;16.07;100.00;96699.28;10495587;28;20244;-74
2022/08/21 06:11:47;;;;;;;14.85;11.15;;;;;;;16.04;100.00;96698.66;10492316;28;20298;-74
2022/08/21 06:16:48;;;;;;;17.52;12.02;;;;;;;16.05;100.00;96697.66;10491981;28;20211;-74
2022/08/21 06:21:48;;;;;;;15.48;11.63;;;;;;;16.20;100.00;96700.22;10493872;28;20195;-74
2022/08/21 06:26:48;;;;;;;17.05;12.15;;;;;;;16.19;100.00;96698.56;10494630;28;20286;-74
2022/08/21 06:31:50;;;;;;;18.08;14.00;;;;;;;16.40;100.00;96691.56;10494441;28;20246;-74
2022/08/21 06:36:50;;;;;;;25.52;17.10;;;;;;;16.64;100.00;96700.88;10493434;28;20207;-75
2022/08/21 06:41:51;;;;;;;37.47;26.70;;;;;;;16.89;100.00;96692.47;10493949;28;20186;-75
2022/08/21 06:46:51;;;;;;;34.33;26.25;;;;;;;16.92;100.00;96689.44;10493095;28;20213;-75
2022/08/21 06:51:51;;;;;;;36.38;26.27;;;;;;;17.11;100.00;96683.41;10493114;28;20211;-75
2022/08/21 06:56:52;;;;;;;30.38;23.88;;;;;;;17.00;100.00;96670.75;10492760;28;20979;-75
2022/08/21 07:01:52;;;;;;;26.80;22.80;;;;;;;17.20;100.00;96667.38;10474976;28;20678;-77
2022/08/21 07:06:52;;;;;;;22.45;19.63;;;;;;;17.19;100.00;96674.47;10474862;28;20222;-76
2022/08/21 07:11:54;;;;;;;25.35;21.23;;;;;;;17.21;100.00;96667.16;10492192;28;20223;-76
2022/08/21 07:16:55;;;;;;;26.23;20.50;;;;;;;17.11;100.00;96667.53;10493284;28;20191;-76
2022/08/21 07:22:00;;;;;;;28.08;21.27;;;;;;;17.40;100.00;96656.81;10474073;28;20596;-77
2022/08/21 07:27:00;;;;;;;20.17;17.60;;;;;;;17.69;100.00;96650.34;10491115;28;20226;-76
2022/08/21 07:32:01;;;;;;;20.92;17.25;;;;;;;17.75;100.00;96646.88;10473588;28;20317;-76
2022/08/21 07:37:01;;;;;;;26.00;19.35;;;;;;;17.30;100.00;96649.25;10476610;28;20769;-76
2022/08/21 07:42:02;;;;;;;21.48;17.25;;;;;;;17.23;100.00;96662.47;10457629;28;20197;-76
2022/08/21 07:47:03;;;;;;;22.88;16.98;;;;;;;17.25;100.00;96667.56;10491791;28;20659;-78
2022/08/21 07:52:03;;;;;;;22.73;16.58;;;;;;;17.53;100.00;96666.59;10491996;28;20219;-78
2022/08/21 07:57:04;;;;;;;18.63;16.35;;;;;;;17.32;100.00;96660.47;10490707;28;20298;-78
2022/08/21 08:02:04;;;;;;;19.23;16.48;;;;;;;17.52;100.00;96659.66;10491658;28;20197;-79
2022/08/21 08:07:04;;;;;;;15.80;14.18;;;;;;;17.83;100.00;96662.56;10491549;28;20199;-79
2022/08/21 08:12:05;;;;;;;20.55;14.63;;;;;;;17.64;100.00;96658.06;10491347;28;20221;-79
2022/08/21 08:17:05;;;;;;;18.13;14.38;;;;;;;17.43;100.00;96661.72;10491817;28;20183;-79
2022/08/21 08:22:17;;;;;;;19.70;15.57;;;;;;;17.16;100.00;96674.88;10491613;28;20187;-79
2022/08/21 08:27:17;;;;;;;23.77;15.13;;;;;;;17.39;100.00;96669.22;10491378;28;20183;-79
2022/08/21 08:32:18;;;;;;;16.33;14.15;;;;;;;17.89;100.00;96662.81;10490578;28;20230;-79
2022/08/21 08:37:20;;;;;;;18.33;12.90;;;;;;;18.07;100.00;96675.41;10475380;28;20631;-78
2022/08/21 08:42:26;;;;;;;15.88;13.40;;;;;;;18.42;100.00;96664.56;10480981;28;20593;-78
2022/08/21 08:47:27;;;;;;;16.52;12.77;;;;;;;18.08;100.00;96669.09;10464492;28;20607;-78
2022/08/21 08:52:34;;;;;;;14.27;12.15;;;;;;;18.43;100.00;96672.31;10498941;28;20222;-78
2022/08/21 08:57:36;;;;;;;18.20;11.85;;;;;;;18.30;100.00;96677.63;10480919;28;20292;-77
2022/08/21 09:02:38;;;;;;;15.30;10.73;;;;;;;18.07;100.00;96680.72;10479780;28;20351;-77
2022/08/21 09:08:07;;;;;;;14.85;11.85;;;;;;;17.95;100.00;96681.34;10464207;28;20184;-78
2022/08/21 09:13:31;;;;;;;14.80;11.25;;;;;;;18.45;100.00;96675.59;10480292;28;20219;-77
2022/08/21 09:18:59;;;;;;;16.10;12.02;;;;;;;18.59;100.00;96667.59;10484342;28;20183;-78
2022/08/21 09:24:17;;;;;;;14.30;11.32;;;;;;;19.08;100.00;96658.25;10497255;28;20360;-77
2022/08/21 09:29:20;;;;;;;12.25;10.77;;;;;;;19.22;100.00;96654.50;10479207;28;20346;-77
2022/08/21 09:34:31;;;;;;;12.90;8.60;;;;;;;18.92;100.00;96646.28;10478483;28;20314;-78
2022/08/21 09:39:37;;;;;;;12.30;7.50;;;;;;;19.14;100.00;96652.09;10478187;28;20195;-77
2022/08/21 09:44:43;;;;;;;10.63;8.25;;;;;;;18.89;100.00;96650.16;10461174;28;20241;-75
2022/08/21 09:49:43;;;;;;;8.38;5.63;;;;;;;19.05;100.00;96635.59;10498793;28;20202;-76
2022/08/21 09:54:45;;;;;;;9.63;4.65;;;;;;;19.53;98.75;96610.38;10537868;28;20238;-75
2022/08/21 09:59:46;;;;;;;9.25;4.72;;;;;;;19.80;98.65;96615.53;10519592;28;20332;-77
2022/08/21 10:04:52;;;;;;;8.27;4.03;;;;;;;20.25;89.54;96577.25;10537615;28;20195;-76
2022/08/21 10:10:20;;;;;;;7.53;4.00;;;;;;;20.16;92.79;96607.81;10537510;28;20190;-76
2022/08/21 10:15:27;;;;;;;6.50;3.92;;;;;;;20.05;92.06;96596.06;10533741;28;20210;-76
2022/08/21 10:20:43;;;;;;;8.48;3.40;;;;;;;20.71;83.93;96575.91;10519095;28;20191;-76
2022/08/21 10:25:50;;;;;;;11.40;3.28;;;;;;;20.36;85.98;96591.66;10537178;28;20263;-76
2022/08/21 10:30:56;;;;;;;8.57;3.28;;;;;;;20.91;82.61;96572.97;10518491;28;20264;-76
2022/08/21 10:36:09;;;;;;;3.88;2.47;;;;;;;21.05;81.39;96586.94;10518177;28;20214;-74
2022/08/21 10:41:32;;;;;;;7.35;2.85;;;;;;;20.45;80.71;96580.47;10518078;28;20277;-76
2022/08/21 10:46:50;;;;;;;5.32;2.90;;;;;;;20.65;79.15;96556.31;10517571;28;20194;-75
2022/08/21 10:52:25;;;;;;;9.88;3.40;;;;;;;20.62;83.82;96607.31;10517793;28;20649;-76
2022/08/21 10:57:49;;;;;;;7.68;2.67;;;;;;;21.06;81.07;96593.06;10517810;28;20721;-77
2022/08/21 11:03:07;;;;;;;4.75;2.67;;;;;;;22.32;74.89;96539.53;10517376;28;20313;-76
2022/08/21 11:08:14;;;;;;;8.07;2.67;;;;;;;22.38;72.44;96530.59;10517618;28;20190;-76
2022/08/21 11:13:44;;;;;;;5.95;2.92;;;;;;;21.82;76.49;96588.03;10516830;28;20222;-76
2022/08/21 11:19:10;;;;;;;11.50;2.75;;;;;;;23.27;67.17;96480.38;10491294;28;20253;-75
2022/08/21 11:24:19;;;;;;;4.18;2.10;;;;;;;23.77;63.97;96460.78;10486881;28;20725;-75
2022/08/21 11:29:27;;;;;;;6.10;2.40;;;;;;;23.27;65.85;96499.09;10492717;28;20194;-75
2022/08/21 11:34:47;;;;;;;4.95;2.03;;;;;;;23.23;63.78;96463.22;10492312;28;20215;-76
2022/08/21 11:40:19;;;;;;;6.70;2.20;;;;;;;23.43;64.02;96465.38;10492520;28;20183;-76
2022/08/21 11:45:33;;;;;;;4.45;2.10;;;;;;;23.48;63.82;96466.28;10492620;28;20191;-76
2022/08/21 11:50:36;;;;;;;6.13;2.40;;;;;;;23.68;61.23;96424.84;10474676;28;20223;-76
2022/08/21 11:55:44;;;;;;;7.95;2.25;;;;;;;23.46;61.63;96446.19;10473947;28;20356;-76
2022/08/21 12:01:02;;;;;;;5.85;2.15;;;;;;;24.20;61.33;96459.22;10457614;28;20191;-73
2022/08/21 12:06:07;;;;;;;6.88;2.60;;;;;;;24.04;59.07;96402.03;10473963;28;20195;-75
2022/08/21 12:11:22;;;;;;;8.55;2.30;;;;;;;22.29;65.00;96475.13;10490695;28;20554;-75
2022/08/21 12:16:36;;;;;;;6.35;2.33;;;;;;;22.42;66.23;96510.41;10491596;28;20599;-75
2022/08/21 12:21:51;;;;;;;6.50;2.33;;;;;;;22.98;66.55;96520.50;10455141;28;20194;-75
2022/08/21 12:26:57;;;;;;;9.38;2.50;;;;;;;23.22;61.81;96441.03;10490826;28;20203;-75
2022/08/21 12:32:19;;;;;;;9.07;2.30;;;;;;;23.31;61.59;96441.44;10472369;28;20332;-75
2022/08/21 12:37:41;;;;;;;6.57;2.00;;;;;;;22.34;64.04;96457.38;10456251;28;20225;-75
2022/08/21 12:42:45;;;;;;;6.30;2.38;;;;;;;22.31;63.75;96462.38;10489240;28;20278;-75
2022/08/21 12:47:55;;;;;;;7.38;2.40;;;;;;;22.72;64.85;96487.19;10472722;28;20190;-75
2022/08/21 12:53:07;;;;;;;5.70;2.45;;;;;;;21.98;66.70;96510.00;10471668;28;20829;-75
2022/08/21 12:58:19;;;;;;;10.25;2.75;;;;;;;21.92;68.38;96522.41;10472159;28;20279;-74
2022/08/21 13:03:21;;;;;;;10.57;2.55;;;;;;;21.49;70.85;96546.72;10489763;28;20635;-74
2022/08/21 13:08:25;;;;;;;3.80;1.67;;;;;;;22.37;63.72;96448.88;10489662;28;20266;-74
2022/08/21 13:13:26;;;;;;;7.30;2.10;;;;;;;21.06;68.04;96499.84;10471391;28;20226;-75
2022/08/21 13:18:29;;;;;;;6.95;1.75;;;;;;;22.58;63.28;96442.06;10471065;28;20187;-74
2022/08/21 13:23:30;;;;;;;4.85;2.03;;;;;;;23.73;61.82;96448.16;10491653;28;20211;-75
2022/08/21 13:28:37;;;;;;;3.95;1.77;;;;;;;24.29;58.04;96392.66;10478598;28;20191;-75
2022/08/21 13:33:38;;;;;;;5.88;1.80;;;;;;;24.65;57.78;96398.38;10479079;28;20353;-75
2022/08/21 13:38:41;;;;;;;5.25;1.50;;;;;;;25.97;55.54;96396.84;10445430;28;20579;-75
2022/08/21 13:43:46;;;;;;;7.57;1.65;;;;;;;26.44;53.54;96370.13;10495748;28;20656;-75
2022/08/21 13:48:47;;;;;;;6.00;1.50;;;;;;;26.98;51.02;96333.88;10496078;28;20199;-75
2022/08/21 13:53:54;;;;;;;3.47;1.50;;;;;;;27.13;49.42;96306.97;10477779;28;20721;-75
2022/08/21 13:58:56;;;;;;;4.68;1.60;;;;;;;27.99;48.24;96317.69;10495339;28;20192;-75
2022/08/21 14:04:11;;;;;;;4.70;1.52;;;;;;;27.83;49.13;96329.63;10496064;28;20272;-75
2022/08/21 14:09:24;;;;;;;7.60;2.03;;;;;;;27.49;48.99;96308.75;10477440;28;20269;-74
2022/08/21 14:14:33;;;;;;;6.35;2.00;;;;;;;28.76;45.61;96289.41;10495144;28;20344;-75
2022/08/21 14:19:40;;;;;;;6.30;1.85;;;;;;;27.46;48.13;96299.38;10476878;28;20733;-75
2022/08/21 14:24:40;;;;;;;4.07;1.63;;;;;;;25.93;49.34;96271.50;10494618;28;20180;-74
2022/08/21 14:29:41;;;;;;;7.47;1.90;;;;;;;25.86;49.52;96278.97;10494259;28;20227;-74
2022/08/21 14:34:42;;;;;;;6.90;1.60;;;;;;;27.73;46.81;96274.75;10493818;28;20560;-74
2022/08/21 14:39:42;;;;;;;4.83;1.73;;;;;;;29.65;43.60;96272.81;10493788;28;20282;-75
2022/08/21 14:44:43;;;;;;;4.47;1.40;;;;;;;31.54;40.46;96253.75;10493786;28;20461;-74
2022/08/21 14:49:43;;;;;;;5.55;1.75;;;;;;;29.74;43.99;96283.78;10492762;28;20199;-75
2022/08/21 14:54:43;;;;;;;7.60;2.03;;;;;;;31.21;38.80;96194.31;10493430;28;20231;-75
2022/08/21 14:59:44;;;;;;;7.57;1.93;;;;;;;30.35;41.72;96241.56;10493002;28;20499;-75
2022/08/21 15:04:44;;;;;;;7.45;1.83;;;;;;;28.13;43.62;96207.47;10492752;28;20442;-74
2022/08/21 15:09:44;;;;;;;6.00;1.50;;;;;;;27.61;44.34;96204.28;10474794;28;20558;-75
2022/08/21 15:14:45;;;;;;;4.72;1.50;;;;;;;26.50;48.66;96291.16;10492603;28;20927;-75
2022/08/21 15:19:46;;;;;;;3.70;1.85;;;;;;;25.99;47.53;96239.03;10473252;28;20278;-74
2022/08/21 15:24:46;;;;;;;6.25;1.70;;;;;;;25.21;49.58;96277.38;10490393;28;20183;-74
2022/08/21 15:29:46;;;;;;;5.20;1.80;;;;;;;23.21;54.91;96324.47;10510726;28;20705;-75
2022/08/21 15:34:47;;;;;;;3.90;1.48;;;;;;;22.96;54.10;96306.22;10533296;28;21062;-75
2022/08/21 15:39:49;;;;;;;5.45;1.83;;;;;;;21.63;58.19;96369.53;10533474;28;20197;-74
2022/08/21 15:44:49;;;;;;;6.25;1.65;;;;;;;22.06;58.07;96384.25;10533301;28;20622;-74
2022/08/21 15:49:50;;;;;;;5.28;1.98;;;;;;;21.29;59.45;96397.84;10532154;28;20186;-74
2022/08/21 15:54:50;;;;;;;5.68;1.80;;;;;;;21.69;58.29;96386.44;10532404;28;20723;-74
2022/08/21 16:00:11;;;;;;;5.65;1.52;;;;;;;21.62;61.31;96439.88;10532941;28;20186;-74
2022/08/21 16:05:16;;;;;;;5.07;1.70;;;;;;;21.62;61.95;96445.22;10515223;28;20304;-74
2022/08/21 16:10:20;;;;;;;4.75;1.95;;;;;;;21.90;61.25;96441.03;10514994;28;20736;-75
2022/08/21 16:15:21;;;;;;;5.00;1.67;;;;;;;21.46;65.86;96509.88;10512228;28;20193;-75
2022/08/21 16:20:24;;;;;;;5.38;1.90;;;;;;;22.23;62.39;96466.22;10527894;28;20512;-75
2022/08/21 16:25:25;;;;;;;6.50;1.45;;;;;;;21.09;69.23;96548.16;10528213;28;20186;-74
2022/08/21 16:30:26;;;;;;;4.38;1.63;;;;;;;21.68;69.02;96542.13;10529303;28;20980;-74
2022/08/21 16:35:27;;;;;;;2.92;1.40;;;;;;;21.62;67.79;96522.53;10529641;28;20702;-74
2022/08/21 16:40:28;;;;;;;6.10;1.70;;;;;;;20.84;71.16;96554.44;10530475;28;20187;-75
2022/08/21 16:45:28;;;;;;;5.50;1.85;;;;;;;19.55;74.88;96562.31;10512799;28;20197;-75
2022/08/21 16:50:28;;;;;;;12.25;1.70;;;;;;;18.54;78.37;96578.00;10531766;28;20215;-74
2022/08/21 16:55:29;;;;;;;5.28;1.80;;;;;;;18.13;81.94;96566.72;10531970;28;20277;-74
2022/08/21 17:00:29;;;;;;;6.63;1.80;;;;;;;17.79;86.87;96560.66;10538627;28;20178;-75
2022/08/21 17:05:30;;;;;;;8.27;2.30;;;;;;;17.61;90.33;96563.94;10540531;28;20198;-73
2022/08/21 17:10:30;;;;;;;9.23;2.60;;;;;;;17.40;93.38;96566.78;10540295;28;20222;-74
2022/08/21 17:15:36;;;;;;;8.63;2.30;;;;;;;17.24;94.53;96565.31;10540727;28;20260;-75
2022/08/21 17:20:36;;;;;;;8.27;2.78;;;;;;;16.97;100.00;96570.59;10539584;28;20194;-75
2022/08/21 17:25:39;;;;;;;5.18;2.20;;;;;;;16.62;100.00;96565.38;10540461;28;20201;-75
2022/08/21 17:30:44;;;;;;;7.22;2.20;;;;;;;16.79;100.00;96565.84;10521440;28;20207;-75
2022/08/21 17:35:45;;;;;;;6.00;1.75;;;;;;;16.55;100.00;96583.03;10539441;28;20685;-76
2022/08/21 17:40:47;;;;;;;8.60;2.25;;;;;;;16.00;100.00;96578.50;10539254;28;20251;-75
2022/08/21 17:45:47;;;;;;;3.17;1.88;;;;;;;15.67;100.00;96583.53;10520345;28;20206;-75
2022/08/21 17:50:48;;;;;;;12.82;2.75;;;;;;;15.67;100.00;96596.75;10520157;28;20214;-75
2022/08/21 17:55:49;;;;;;;4.75;2.70;;;;;;;15.36;100.00;96586.53;10519887;28;20463;-75
2022/08/21 18:00:49;;;;;;;7.97;2.83;;;;;;;15.15;100.00;96588.16;10521528;28;20247;-75
2022/08/21 18:05:52;;;;;;;8.43;3.40;;;;;;;14.82;100.00;96596.53;10557706;28;20190;-75
2022/08/21 18:10:53;;;;;;;9.63;3.13;;;;;;;14.62;100.00;96601.59;10553261;28;20206;-75
2022/08/21 18:15:54;;;;;;;7.65;3.15;;;;;;;14.45;100.00;96607.03;10548181;28;20225;-75
2022/08/21 18:20:55;;;;;;;5.70;3.53;;;;;;;14.15;100.00;96605.41;10537992;28;20190;-75
2022/08/21 18:25:56;;;;;;;9.18;3.53;;;;;;;13.98;100.00;96613.50;10544269;28;20190;-76
2022/08/21 18:30:57;;;;;;;5.35;3.60;;;;;;;13.86;100.00;96620.22;10533646;28;20225;-75
2022/08/21 18:35:57;;;;;;;9.55;4.72;;;;;;;13.68;100.00;96620.53;10498358;28;20221;-76
2022/08/21 18:40:58;;;;;;;9.50;3.92;;;;;;;13.53;100.00;96629.19;10536868;28;20336;-75
2022/08/21 18:46:00;;;;;;;5.32;3.83;;;;;;;13.37;100.00;96645.13;10518778;28;20179;-75
2022/08/21 18:51:01;;;;;;;5.07;3.35;;;;;;;13.21;100.00;96643.38;10536277;28;20225;-75
2022/08/21 18:56:01;;;;;;;6.13;3.33;;;;;;;13.06;100.00;96648.56;10517369;28;20602;-74
2022/08/21 19:01:02;;;;;;;10.43;3.83;;;;;;;12.97;100.00;96652.25;10517700;28;20189;-75
2022/08/21 19:06:02;;;;;;;5.53;3.25;;;;;;;12.80;100.00;96654.97;10536425;28;20243;-75
2022/08/21 19:11:05;;;;;;;8.38;4.60;;;;;;;12.73;100.00;96664.53;10535396;28;20328;-75
2022/08/21 19:16:05;;;;;;;6.75;4.35;;;;;;;12.60;100.00;96674.75;10536018;28;20186;-75
2022/08/21 19:21:05;;;;;;;4.35;3.28;;;;;;;12.47;100.00;96657.72;10516897;28;20202;-74
2022/08/21 19:26:06;;;;;;;10.93;3.80;;;;;;;12.37;100.00;96658.91;10500186;28;20219;-75
2022/08/21 19:31:17;;;;;;;7.13;4.05;;;;;;;12.26;100.00;96667.97;10500030;28;20311;-75
2022/08/21 19:36:18;;;;;;;3.80;3.03;;;;;;;12.18;100.00;96679.31;10535614;28;20255;-75
2022/08/21 19:41:19;;;;;;;9.45;3.40;;;;;;;12.02;100.00;96671.47;10516825;28;20270;-75
2022/08/21 19:46:26;;;;;;;6.85;3.45;;;;;;;11.93;100.00;96679.34;10517884;28;20198;-74
2022/08/21 19:51:27;;;;;;;6.78;3.03;;;;;;;11.90;100.00;96678.84;10534814;28;20222;-75
2022/08/21 19:56:29;;;;;;;8.40;3.42;;;;;;;11.77;100.00;96681.97;10534564;28;20241;-75
2022/08/21 20:01:29;;;;;;;7.18;3.10;;;;;;;11.66;100.00;96677.84;10498602;28;20192;-74
2022/08/21 20:06:30;;;;;;;3.63;3.25;;;;;;;11.56;100.00;96678.03;10534291;28;20194;-74
2022/08/21 20:11:48;;;;;;;10.82;3.58;;;;;;;11.49;100.00;96665.72;10536153;28;20318;-73
2022/08/21 20:16:49;;;;;;;10.23;3.35;;;;;;;11.46;100.00;96660.81;10500549;28;20331;-76
2022/08/21 20:21:50;;;;;;;5.63;3.28;;;;;;;11.38;100.00;96657.19;10521091;28;20211;-75
2022/08/21 20:26:50;;;;;;;4.63;3.42;;;;;;;11.30;100.00;96654.56;10533795;28;20213;-76
2022/08/21 20:31:50;;;;;;;11.00;4.00;;;;;;;11.18;100.00;96658.47;10517402;28;20294;-76
2022/08/21 20:36:57;;;;;;;7.47;3.05;;;;;;;11.16;100.00;96656.00;10553679;28;20206;-76
2022/08/21 20:41:57;;;;;;;5.13;3.40;;;;;;;11.07;100.00;96657.81;10526862;28;20194;-75
2022/08/21 20:46:59;;;;;;;6.75;3.47;;;;;;;11.02;100.00;96656.63;10542939;28;20197;-74
2022/08/21 20:52:00;;;;;;;7.25;3.67;;;;;;;10.97;100.00;96662.38;10524100;28;20210;-75
2022/08/21 20:57:16;;;;;;;7.57;3.72;;;;;;;10.86;100.00;96654.81;10542352;28;20226;-74
2022/08/21 21:09:19;;;;;;;6.40;3.60;;;;;;;10.76;100.00;96656.75;10542559;28;20194;-75
2022/08/21 21:15:06;;;;;;;9.60;3.78;;;;;;;10.63;100.00;96658.00;10526065;28;20218;-75
2022/08/21 21:28:25;;;;;;;;;;;;;;;;;;;;;
2022/08/21 21:33:46;;;;;;;7.18;3.63;;;;;;;10.51;100.00;96669.75;10290253;28;20272;-76
2022/08/21 21:38:52;;;;;;;4.07;3.13;;;;;;;10.50;100.00;96665.47;10511814;28;20562;-76
2022/08/21 21:44:08;;;;;;;9.57;3.80;;;;;;;10.44;100.00;96660.88;10520432;28;20187;-75
2022/08/21 21:49:28;;;;;;;5.00;3.53;;;;;;;10.42;100.00;96665.44;10538930;28;20186;-74
2022/08/21 21:54:34;;;;;;;9.73;3.73;;;;;;;10.38;100.00;96664.91;10520610;28;20226;-75
2022/08/21 21:59:56;;;;;;;6.13;3.90;;;;;;;10.30;100.00;96672.72;10538146;28;20540;-74
2022/08/21 22:05:02;;;;;;;5.90;3.17;;;;;;;10.28;100.00;96664.22;10538090;28;20500;-74
2022/08/21 22:10:18;;;;;;;4.87;3.40;;;;;;;10.20;100.00;96672.00;10519446;28;20243;-76
2022/08/21 22:15:18;;;;;;;11.60;3.80;;;;;;;10.20;100.00;96672.00;10538257;28;20208;-75
2022/08/21 22:20:26;;;;;;;6.07;3.73;;;;;;;10.20;100.00;96670.22;10536556;28;20196;-76
2022/08/21 22:25:32;;;;;;;8.37;3.77;;;;;;;10.18;100.00;96669.53;10520063;28;20185;-76
2022/08/21 22:30:48;;;;;;;6.47;3.70;;;;;;;10.10;100.00;96664.25;10518504;28;20547;-76
2022/08/21 22:35:51;;;;;;;7.70;3.90;;;;;;;10.10;100.00;96674.72;10537026;28;20206;-74
2022/08/21 22:40:59;;;;;;;7.43;4.40;;;;;;;10.12;100.00;96665.75;10536179;28;20183;-76
2022/08/21 22:46:05;;;;;;;10.97;3.77;;;;;;;10.08;100.00;96661.00;10518297;28;20286;-76
2022/08/21 22:51:26;;;;;;;5.80;3.43;;;;;;;10.06;100.00;96662.91;10500886;28;20214;-76
2022/08/21 22:56:30;;;;;;;6.17;3.70;;;;;;;10.00;100.00;96667.81;10517640;28;20321;-76
2022/08/21 23:01:38;;;;;;;9.43;3.87;;;;;;;9.97;100.00;96662.88;10518088;28;20554;-76
2022/08/21 23:06:41;;;;;;;4.70;3.03;;;;;;;9.95;100.00;96659.59;10517204;28;20190;-74
2022/08/21 23:11:43;;;;;;;6.77;3.93;;;;;;;9.95;100.00;96661.38;10535081;28;20222;-76
2022/08/21 23:16:50;;;;;;;3.63;3.13;;;;;;;9.97;100.00;96665.50;10535529;28;21112;-76
2022/08/21 23:22:15;;;;;;;5.93;3.40;;;;;;;9.94;100.00;96671.03;10535615;28;20268;-76
2022/08/21 23:27:27;;;;;;;7.00;4.03;;;;;;;9.84;100.00;96656.41;10535300;28;20190;-76
2022/08/21 23:32:37;;;;;;;6.23;3.83;;;;;;;9.85;100.00;96661.50;10534772;28;20265;-76